createdAt,value
2022-09-25T00:03:49.652Z,11.08
2022-09-25T00:08:48.981Z,10.48
2022-09-25T00:13:50.121Z,10.48
2022-09-25T00:18:47.426Z,10.48
2022-09-25T00:23:46.754Z,10.48
2022-09-25T00:28:46.108Z,10.79
2022-09-25T00:33:45.234Z,10.79
2022-09-25T00:38:44.557Z,10.79
2022-09-25T00:43:44.866Z,10.79
2022-09-25T00:48:44.183Z,10.79
2022-09-25T00:53:43.490Z,9.87
2022-09-25T00:58:42.818Z,10.18
2022-09-25T01:03:41.137Z,10.18
2022-09-25T01:08:40.456Z,10.18
2022-09-25T01:13:39.775Z,10.18
2022-09-25T01:18:41.107Z,10.18
2022-09-25T01:23:39.434Z,10.18
2022-09-25T01:28:39.761Z,10.18
2022-09-25T01:33:37.098Z,10.79
2022-09-25T01:38:36.212Z,10.79
2022-09-25T01:43:35.563Z,10.48
2022-09-25T01:48:34.691Z,10.48
2022-09-25T01:53:35.013Z,10.48
2022-09-25T01:58:34.314Z,10.16
2022-09-25T02:03:33.634Z,10.48
2022-09-25T02:08:31.935Z,10.48
2022-09-25T02:13:31.249Z,10.48
2022-09-25T02:18:31.561Z,10.79
2022-09-25T02:23:30.864Z,10.79
2022-09-25T02:28:30.155Z,10.79
2022-09-25T02:33:28.435Z,10.79
2022-09-25T02:38:28.745Z,9.87
2022-09-25T02:43:27.062Z,9.87
2022-09-25T02:48:26.369Z,9.87
2022-09-25T02:53:25.730Z,9.87
2022-09-25T02:58:24.824Z,9.87
2022-09-25T03:03:25.164Z,10.18
2022-09-25T03:08:23.322Z,10.18
2022-09-25T03:13:22.652Z,10.47
2022-09-25T03:18:24.003Z,10.47
2022-09-25T03:23:21.103Z,10.18
2022-09-25T03:28:20.483Z,9.87
2022-09-25T03:33:19.576Z,10.79
2022-09-25T03:38:18.863Z,10.48
2022-09-25T03:43:19.176Z,10.16
2022-09-25T03:48:19.462Z,10.16
2022-09-25T03:53:16.801Z,10.48
2022-09-25T03:58:16.878Z,10.48
2022-09-25T04:03:16.178Z,10.16
2022-09-25T04:08:15.465Z,10.16
2022-09-25T04:13:13.816Z,10.48
2022-09-25T04:18:12.953Z,10.48
2022-09-25T04:23:13.314Z,9.87
2022-09-25T04:28:11.502Z,9.87
2022-09-25T04:33:11.644Z,9.87
2022-09-25T04:38:09.799Z,9.87
2022-09-25T04:43:09.112Z,9.87
2022-09-25T04:48:08.411Z,9.87
2022-09-25T04:53:07.737Z,9.87
2022-09-25T04:58:08.048Z,10.18
2022-09-25T05:03:07.501Z,10.18
2022-09-25T05:08:07.651Z,10.18
2022-09-25T05:13:04.767Z,9.87
2022-09-25T05:18:04.110Z,9.87
2022-09-25T05:23:06.445Z,10.18
2022-09-25T05:28:02.766Z,9.87
2022-09-25T05:33:02.090Z,10.16
2022-09-25T05:38:01.386Z,10.42
2022-09-25T05:43:00.694Z,10.09
2022-09-25T05:48:00.003Z,10.09
2022-09-25T05:52:59.315Z,10.65
2022-09-25T05:57:58.615Z,10.99
2022-09-25T06:02:57.955Z,10.65
2022-09-25T06:07:59.142Z,9.74
2022-09-25T06:12:57.210Z,10.99
2022-09-25T06:17:55.514Z,10.65
2022-09-25T06:22:54.851Z,10.65
2022-09-25T06:27:55.956Z,10.29
2022-09-25T06:32:53.292Z,10.29
2022-09-25T06:37:53.610Z,10.29
2022-09-25T06:42:52.888Z,10.29
2022-09-25T06:47:52.180Z,10.29
2022-09-25T06:52:51.458Z,10.29
2022-09-25T06:57:49.808Z,10.65
2022-09-25T07:02:51.169Z,10.29
2022-09-25T07:07:48.325Z,10.29
2022-09-25T07:12:48.638Z,10.65
2022-09-25T07:17:47.942Z,11.19
2022-09-25T07:22:47.234Z,10.83
2022-09-25T07:27:45.525Z,10.83
2022-09-25T07:32:44.836Z,10.83
2022-09-25T07:37:45.164Z,10.65
2022-09-25T07:42:44.484Z,11.55
2022-09-25T07:47:43.797Z,10.65
2022-09-25T07:52:42.093Z,11.33
2022-09-25T07:57:42.428Z,10.65
2022-09-25T08:02:40.770Z,10.99
2022-09-25T08:07:40.040Z,10.99
2022-09-25T08:12:39.404Z,10.99
2022-09-25T08:17:39.551Z,11.55
2022-09-25T08:22:39.664Z,10.99
2022-09-25T08:27:37.934Z,11.55
2022-09-25T08:32:37.186Z,10.65
2022-09-25T08:37:36.421Z,10.65
2022-09-25T08:42:34.677Z,10.65
2022-09-25T08:47:35.962Z,11.19
2022-09-25T08:52:33.232Z,11.19
2022-09-25T08:57:32.507Z,11.55
2022-09-25T09:02:32.843Z,10.83
2022-09-25T09:07:31.133Z,10.83
2022-09-25T09:12:30.408Z,11.35
2022-09-25T09:17:29.705Z,11.35
2022-09-25T09:22:30.042Z,10.83
2022-09-25T09:27:28.349Z,11.73
2022-09-25T09:32:28.662Z,10.83
2022-09-25T09:37:27.953Z,10.83
2022-09-25T09:42:26.230Z,11.73
2022-09-25T09:47:25.522Z,11.35
2022-09-25T09:52:24.845Z,11.35
2022-09-25T09:57:23.965Z,11.35
2022-09-25T10:02:23.415Z,11.35
2022-09-25T10:07:22.585Z,11.35
2022-09-25T10:12:21.896Z,11.35
2022-09-25T10:17:22.243Z,10.83
2022-09-25T10:22:22.350Z,10.83
2022-09-25T10:27:19.638Z,11.73
2022-09-25T10:32:18.976Z,11.35
2022-09-25T10:37:20.219Z,11.35
2022-09-25T10:42:19.385Z,11.35
2022-09-25T10:47:18.565Z,11.35
2022-09-25T10:52:14.718Z,11.35
2022-09-25T10:57:14.921Z,11.35
2022-09-25T11:02:15.255Z,11.35
2022-09-25T11:07:16.347Z,11.35
2022-09-25T11:12:13.508Z,11.35
2022-09-25T11:17:11.687Z,10.83
2022-09-25T11:22:11.871Z,10.83
2022-09-25T11:27:12.055Z,10.83
2022-09-25T11:32:11.220Z,11.19
2022-09-25T11:37:08.397Z,11.19
2022-09-25T11:42:08.566Z,11.19
2022-09-25T11:47:06.740Z,11.55
2022-09-25T11:52:07.925Z,11.55
2022-09-25T11:57:05.098Z,11.19
2022-09-25T12:02:04.369Z,11.19
2022-09-25T12:07:04.585Z,11.19
2022-09-25T12:12:02.775Z,10.83
2022-09-25T12:17:02.941Z,10.83
2022-09-25T12:22:01.149Z,11.19
2022-09-25T12:27:00.329Z,11.19
2022-09-25T12:32:00.486Z,11.19
2022-09-25T12:36:59.744Z,10.65
2022-09-25T12:41:57.934Z,10.99
2022-09-25T12:46:57.099Z,11.33
2022-09-25T12:51:58.288Z,11.33
2022-09-25T12:56:56.442Z,10.75
2022-09-25T13:01:54.716Z,11.08
2022-09-25T13:06:53.899Z,10.75
2022-09-25T13:11:54.090Z,10.75
2022-09-25T13:16:53.319Z,11.33
2022-09-25T13:21:51.500Z,10.99
2022-09-25T13:26:52.735Z,10.99
2022-09-25T13:31:49.886Z,11.33
2022-09-25T13:36:49.063Z,11.33
2022-09-25T13:41:47.302Z,11.66
2022-09-25T13:46:47.500Z,11.08
2022-09-25T13:51:47.714Z,11.08
2022-09-25T13:56:45.906Z,11.40
2022-09-25T14:01:45.205Z,11.08
2022-09-25T14:06:45.330Z,11.40
2022-09-25T14:11:43.485Z,11.71
2022-09-25T14:16:43.647Z,11.09
2022-09-25T14:21:41.812Z,11.09
2022-09-25T14:26:41.979Z,11.69
2022-09-25T14:31:40.218Z,11.69
2022-09-25T14:36:40.466Z,11.98
2022-09-25T14:41:39.748Z,11.69
2022-09-25T14:46:38.933Z,11.39
2022-09-25T14:51:38.119Z,11.39
2022-09-25T14:56:37.298Z,11.69
2022-09-25T15:01:36.512Z,12.01
2022-09-25T15:06:34.685Z,11.39
2022-09-25T15:11:35.874Z,12.32
2022-09-25T15:16:34.114Z,11.69
2022-09-25T15:21:33.338Z,11.69
2022-09-25T15:26:33.499Z,11.98
2022-09-25T15:31:31.728Z,12.32
2022-09-25T15:36:29.923Z,11.09
2022-09-25T15:41:30.152Z,11.71
2022-09-25T15:46:28.263Z,11.99
2022-09-25T15:51:27.460Z,12.31
2022-09-25T15:56:27.686Z,11.71
2022-09-25T16:01:25.957Z,12.62
2022-09-25T16:06:26.166Z,12.31
2022-09-25T16:11:25.334Z,11.71
2022-09-25T16:16:23.621Z,12.01
2022-09-25T16:21:22.690Z,12.32
2022-09-25T16:26:24.260Z,11.98
2022-09-25T16:31:21.115Z,11.98
2022-09-25T16:36:20.309Z,11.98
2022-09-25T16:41:19.496Z,11.98
2022-09-25T16:46:18.772Z,11.69
2022-09-25T16:51:18.031Z,11.69
2022-09-25T16:56:18.218Z,11.69
2022-09-25T17:01:15.598Z,11.69
2022-09-25T17:06:16.586Z,11.39
2022-09-25T17:11:14.856Z,11.98
2022-09-25T17:16:16.142Z,11.69
2022-09-25T17:21:14.309Z,11.69
2022-09-25T17:26:12.546Z,11.71
2022-09-25T17:31:11.881Z,11.39
2022-09-25T17:36:11.928Z,11.98
2022-09-25T17:41:11.155Z,11.98
2022-09-25T17:46:09.595Z,11.33
2022-09-25T17:51:08.600Z,11.05
2022-09-25T17:56:07.985Z,11.61
2022-09-25T18:01:08.050Z,11.33
2022-09-25T18:06:06.295Z,11.61
2022-09-25T18:11:05.886Z,11.33
2022-09-25T18:16:04.139Z,11.05
2022-09-25T18:21:08.915Z,11.69
2022-09-25T18:26:03.527Z,11.05
2022-09-25T18:31:02.842Z,11.98
2022-09-25T18:36:01.901Z,11.33
2022-09-25T18:41:01.287Z,11.05
2022-09-25T18:46:00.452Z,11.39
2022-09-25T18:50:59.459Z,11.39
2022-09-25T18:55:57.707Z,10.47
2022-09-25T19:00:57.944Z,10.47
2022-09-25T19:05:58.386Z,11.09
2022-09-25T19:10:57.391Z,11.40
2022-09-25T19:15:55.884Z,11.40
2022-09-25T19:20:55.989Z,11.08
2022-09-25T19:25:54.318Z,11.08
2022-09-25T19:30:54.424Z,11.66
2022-09-25T19:35:53.628Z,11.66
2022-09-25T19:40:51.885Z,10.75
2022-09-25T19:45:51.137Z,11.40
2022-09-25T19:50:52.363Z,11.08
2022-09-25T19:55:51.530Z,11.08
2022-09-25T20:00:48.701Z,10.48
2022-09-25T20:05:47.885Z,10.48
2022-09-25T20:10:47.099Z,10.48
2022-09-25T20:15:46.313Z,10.75
2022-09-25T20:20:45.475Z,11.08
2022-09-25T20:25:44.677Z,11.08
2022-09-25T20:30:44.854Z,11.08
2022-09-25T20:35:43.013Z,10.48
2022-09-25T20:40:44.304Z,10.79
2022-09-25T20:45:42.528Z,11.09
2022-09-25T20:50:40.697Z,11.40
2022-09-25T20:55:39.865Z,11.08
2022-09-25T21:00:39.045Z,11.08
2022-09-25T21:05:39.237Z,11.08
2022-09-25T21:10:39.397Z,11.08
2022-09-25T21:15:36.553Z,11.08
2022-09-25T21:20:36.725Z,11.08
2022-09-25T21:25:34.895Z,10.75
2022-09-25T21:30:35.128Z,11.08
2022-09-25T21:35:33.316Z,11.40
2022-09-25T21:40:33.535Z,10.48
2022-09-25T21:45:32.722Z,11.40
2022-09-25T21:50:30.914Z,10.48
2022-09-25T21:55:30.082Z,11.08
2022-09-25T22:00:30.257Z,11.08
2022-09-25T22:05:28.427Z,10.75
2022-09-25T22:10:27.600Z,10.42
2022-09-25T22:15:27.772Z,10.42
2022-09-25T22:20:25.921Z,10.75
2022-09-25T22:25:26.099Z,10.99
2022-09-25T22:30:26.329Z,10.42
2022-09-25T22:35:23.498Z,10.99
2022-09-25T22:40:22.754Z,10.99
2022-09-25T22:45:21.941Z,10.99
2022-09-25T22:50:22.122Z,10.99
2022-09-25T22:55:20.287Z,10.99
2022-09-25T23:00:18.459Z,10.99
2022-09-25T23:05:20.696Z,10.99
2022-09-25T23:10:17.820Z,10.42
2022-09-25T23:15:18.140Z,10.42
2022-09-25T23:20:14.459Z,10.75
2022-09-25T23:25:16.794Z,10.75
2022-09-25T23:30:15.139Z,9.84
2022-09-25T23:35:14.251Z,9.84
2022-09-25T23:40:15.968Z,9.84
2022-09-25T23:45:13.924Z,10.16
2022-09-25T23:50:13.005Z,10.16
2022-09-25T23:55:11.295Z,10.16
